Mobile, AL (36619)

2:27 PM CDT on August 25, 2016 (GMT -0500)
| | Change Station

Elev -9999 ft 0.00 °N, 0.00 °E | Updated

Partly Cloudy
Partly Cloudy
88 °F
Feels Like 96 °F
N
7
Wind Variable Wind from ESE
Gusts mph

Today
High -- | Low -- °F
--% Chance of Precip.
Yesterday
High -- | Low -- °F
Precip. -- in
Pressure 30.07 in
Visibility 10.0 miles
Clouds Mostly Cloudy 3600 ft
Mostly Cloudy 6500 ft
Mostly Cloudy 25000 ft
Heat Index 96 °F
Dew Point 73 °F
Humidity 63%
Rainfall --
Snow Depth Not available.
6:25 AM 7:23 PM
Last Quarter, 43% visible
METAR KMOB 251856Z 10006KT 10SM BKN036 BKN065 BKN250 32/24 A3008 RMK AO2 SLP182 CB DSNT ALQDS T03170239
Pressure 30.07 in
Visibility 10.0 miles
Clouds Mostly Cloudy 3600 ft
Mostly Cloudy 6500 ft
Mostly Cloudy 25000 ft
Heat Index 96 °F
Dew Point 73 °F
Humidity 63%
Rainfall --
Snow Depth Not available.
6:25 AM 7:23 PM
Last Quarter, 43% visible
METAR KMOB 251856Z 10006KT 10SM BKN036 BKN065 BKN250 32/24 A3008 RMK AO2 SLP182 CB DSNT ALQDS T03170239
A tropical disturbance pushing toward the Bahamas, is expected to develop into a tropical depression or storm, and will likely target Florida and the Gulf Coast this weekend into next week.

Right now, the disturbance remains a broad area of low pressure pushing through the Dominican Republic and Haiti, headed toward the southeast Bahamas. Rainfall totals over 3 inches (with locally higher amounts) are expected in HispaƱiola, particularly over elevated terrain.

10-Day Weather Forecast

Almanac

Astronomy

Aug. 25, 2016 Rise Set
Actual Time
Civil Twilight
Nautical Twilight
Astronomical Twilight
Moon
Length of Visible Light
Length of Day
Tomorrow will be .
, % of the Moon is Illuminated

Today's Extremes

State Highs State Lows

Community

WunderPhotos

Upload Photos

1,934,907 photos uploaded!

WunderBlog® & News

Nearby

Air Quality

  Air Quality AQ Index Pollutant
Not available.

Snow Depth

Station Depth Elevation

Earthquake Activity

City Distance Mag. Time & Date
Minimum magnitude displayed is 2.5.

Coastal Water Temperatures

Place Temperature

Stations

Nearby Weather Stations

Station Location Temp. Windchill Dew Point Humidity Wind Precip. Elev Updated Type
                   

Watches & Warnings

There are currently no watches in effect.